sensor_id;sensor_type;location;lat;lon;timestamp;P1;durP1;ratioP1;P2;durP2;ratioP2
2023;SDS011;1016;48.770;9.154;2023-05-28T00:01:24;28.00;;;6.10;;
2023;SDS011;1016;48.770;9.154;2023-05-28T00:03:50;27.90;;;6.20;;
2023;SDS011;1016;48.770;9.154;2023-05-28T00:06:15;24.70;;;6.00;;
2023;SDS011;1016;48.770;9.154;2023-05-28T00:08:41;28.17;;;6.40;;
2023;SDS011;1016;48.770;9.154;2023-05-28T00:11:06;24.97;;;6.40;;
2023;SDS011;1016;48.770;9.154;2023-05-28T00:13:32;27.17;;;6.60;;
2023;SDS011;1016;48.770;9.154;2023-05-28T00:15:57;26.03;;;5.73;;
2023;SDS011;1016;48.770;9.154;2023-05-28T00:18:23;28.00;;;6.43;;
2023;SDS011;1016;48.770;9.154;2023-05-28T00:20:49;27.10;;;6.00;;
2023;SDS011;1016;48.770;9.154;2023-05-28T00:23:15;26.27;;;6.37;;
2023;SDS011;1016;48.770;9.154;2023-05-28T00:25:41;25.60;;;6.10;;
2023;SDS011;1016;48.770;9.154;2023-05-28T00:28:07;27.10;;;7.10;;
2023;SDS011;1016;48.770;9.154;2023-05-28T00:30:32;28.17;;;7.37;;
2023;SDS011;1016;48.770;9.154;2023-05-28T00:32:58;25.23;;;6.17;;
2023;SDS011;1016;48.770;9.154;2023-05-28T00:35:23;25.60;;;6.47;;
2023;SDS011;1016;48.770;9.154;2023-05-28T00:37:50;26.70;;;6.57;;
2023;SDS011;1016;48.770;9.154;2023-05-28T00:40:17;26.07;;;6.10;;
2023;SDS011;1016;48.770;9.154;2023-05-28T00:42:43;25.07;;;6.00;;
2023;SDS011;1016;48.770;9.154;2023-05-28T00:45:11;27.20;;;6.50;;
2023;SDS011;1016;48.770;9.154;2023-05-28T00:47:38;26.57;;;6.50;;
2023;SDS011;1016;48.770;9.154;2023-05-28T00:50:05;25.60;;;6.10;;
2023;SDS011;1016;48.770;9.154;2023-05-28T00:52:34;27.33;;;6.10;;
2023;SDS011;1016;48.770;9.154;2023-05-28T00:55:01;24.70;;;6.10;;
2023;SDS011;1016;48.770;9.154;2023-05-28T00:57:28;27.73;;;6.33;;
2023;SDS011;1016;48.770;9.154;2023-05-28T00:59:56;27.23;;;6.80;;
2023;SDS011;1016;48.770;9.154;2023-05-28T01:02:21;26.60;;;6.93;;
2023;SDS011;1016;48.770;9.154;2023-05-28T01:04:47;27.50;;;6.93;;
2023;SDS011;1016;48.770;9.154;2023-05-28T01:07:12;25.73;;;7.40;;
2023;SDS011;1016;48.770;9.154;2023-05-28T01:09:38;25.10;;;6.43;;
2023;SDS011;1016;48.770;9.154;2023-05-28T01:12:04;26.30;;;6.80;;
2023;SDS011;1016;48.770;9.154;2023-05-28T01:14:31;26.37;;;7.00;;
2023;SDS011;1016;48.770;9.154;2023-05-28T01:16:57;27.00;;;6.53;;
2023;SDS011;1016;48.770;9.154;2023-05-28T01:19:23;28.37;;;6.40;;
2023;SDS011;1016;48.770;9.154;2023-05-28T01:21:53;26.47;;;6.43;;
2023;SDS011;1016;48.770;9.154;2023-05-28T01:24:23;30.50;;;6.83;;
2023;SDS011;1016;48.770;9.154;2023-05-28T01:26:49;25.50;;;6.13;;
2023;SDS011;1016;48.770;9.154;2023-05-28T01:29:16;26.30;;;6.37;;
2023;SDS011;1016;48.770;9.154;2023-05-28T01:31:42;24.60;;;5.60;;
2023;SDS011;1016;48.770;9.154;2023-05-28T01:34:09;27.40;;;6.23;;
2023;SDS011;1016;48.770;9.154;2023-05-28T01:36:35;26.10;;;6.10;;
2023;SDS011;1016;48.770;9.154;2023-05-28T01:39:06;26.33;;;6.60;;
2023;SDS011;1016;48.770;9.154;2023-05-28T01:41:33;28.63;;;5.87;;
2023;SDS011;1016;48.770;9.154;2023-05-28T03:53:00;28.53;;;6.80;;
2023;SDS011;1016;48.770;9.154;2023-05-28T03:55:25;27.47;;;7.30;;
2023;SDS011;1016;48.770;9.154;2023-05-28T03:57:51;25.30;;;6.23;;
2023;SDS011;1016;48.770;9.154;2023-05-28T04:00:16;29.67;;;6.80;;
2023;SDS011;1016;48.770;9.154;2023-05-28T04:02:42;28.73;;;6.43;;
2023;SDS011;1016;48.770;9.154;2023-05-28T04:05:08;27.33;;;6.65;;
2023;SDS011;1016;48.770;9.154;2023-05-28T04:07:33;26.10;;;6.50;;
2023;SDS011;1016;48.770;9.154;2023-05-28T04:09:59;27.73;;;7.00;;
2023;SDS011;1016;48.770;9.154;2023-05-28T04:12:25;26.98;;;7.20;;
2023;SDS011;1016;48.770;9.154;2023-05-28T04:14:50;26.83;;;6.73;;
2023;SDS011;1016;48.770;9.154;2023-05-28T04:17:16;24.27;;;6.17;;
2023;SDS011;1016;48.770;9.154;2023-05-28T04:19:42;25.07;;;6.10;;
2023;SDS011;1016;48.770;9.154;2023-05-28T04:22:08;25.70;;;6.50;;
2023;SDS011;1016;48.770;9.154;2023-05-28T04:24:34;27.07;;;6.13;;
2023;SDS011;1016;48.770;9.154;2023-05-28T04:27:00;26.60;;;6.20;;
2023;SDS011;1016;48.770;9.154;2023-05-28T04:29:25;25.60;;;5.90;;
2023;SDS011;1016;48.770;9.154;2023-05-28T04:31:53;26.90;;;6.13;;
2023;SDS011;1016;48.770;9.154;2023-05-28T04:34:20;27.27;;;6.80;;
2023;SDS011;1016;48.770;9.154;2023-05-28T04:36:46;28.43;;;6.30;;
2023;SDS011;1016;48.770;9.154;2023-05-28T04:39:13;25.53;;;6.03;;
2023;SDS011;1016;48.770;9.154;2023-05-28T04:41:39;26.77;;;5.90;;
2023;SDS011;1016;48.770;9.154;2023-05-28T04:44:05;25.50;;;5.67;;
2023;SDS011;1016;48.770;9.154;2023-05-28T04:46:30;27.50;;;6.27;;
2023;SDS011;1016;48.770;9.154;2023-05-28T04:48:56;25.30;;;5.33;;
2023;SDS011;1016;48.770;9.154;2023-05-28T04:51:22;25.90;;;5.67;;
2023;SDS011;1016;48.770;9.154;2023-05-28T04:53:48;26.50;;;6.07;;
2023;SDS011;1016;48.770;9.154;2023-05-28T04:56:13;26.80;;;5.80;;
2023;SDS011;1016;48.770;9.154;2023-05-28T04:58:39;26.77;;;6.00;;
2023;SDS011;1016;48.770;9.154;2023-05-28T05:01:05;25.90;;;5.57;;
2023;SDS011;1016;48.770;9.154;2023-05-28T05:03:32;27.30;;;5.53;;
2023;SDS011;1016;48.770;9.154;2023-05-28T05:05:57;26.75;;;5.97;;
2023;SDS011;1016;48.770;9.154;2023-05-28T05:08:23;25.77;;;5.87;;
2023;SDS011;1016;48.770;9.154;2023-05-28T05:10:48;25.73;;;5.90;;
2023;SDS011;1016;48.770;9.154;2023-05-28T05:13:14;27.60;;;6.05;;
2023;SDS011;1016;48.770;9.154;2023-05-28T05:15:40;25.50;;;5.57;;
2023;SDS011;1016;48.770;9.154;2023-05-28T05:18:05;23.97;;;5.67;;
2023;SDS011;1016;48.770;9.154;2023-05-28T05:20:31;27.37;;;5.33;;
2023;SDS011;1016;48.770;9.154;2023-05-28T05:22:56;26.20;;;6.03;;
2023;SDS011;1016;48.770;9.154;2023-05-28T05:25:22;26.20;;;6.20;;
2023;SDS011;1016;48.770;9.154;2023-05-28T05:27:50;26.97;;;6.10;;
2023;SDS011;1016;48.770;9.154;2023-05-28T05:30:16;28.67;;;5.93;;
2023;SDS011;1016;48.770;9.154;2023-05-28T05:32:42;28.47;;;6.63;;
2023;SDS011;1016;48.770;9.154;2023-05-28T05:35:07;28.20;;;7.23;;
2023;SDS011;1016;48.770;9.154;2023-05-28T05:37:34;27.45;;;5.90;;
2023;SDS011;1016;48.770;9.154;2023-05-28T05:40:00;26.77;;;6.10;;
2023;SDS011;1016;48.770;9.154;2023-05-28T05:42:26;25.60;;;5.80;;
2023;SDS011;1016;48.770;9.154;2023-05-28T05:44:52;28.17;;;5.90;;
2023;SDS011;1016;48.770;9.154;2023-05-28T05:47:18;27.55;;;6.28;;
2023;SDS011;1016;48.770;9.154;2023-05-28T05:49:43;27.03;;;5.57;;
2023;SDS011;1016;48.770;9.154;2023-05-28T05:52:09;24.80;;;5.90;;
2023;SDS011;1016;48.770;9.154;2023-05-28T05:54:34;26.20;;;6.20;;
2023;SDS011;1016;48.770;9.154;2023-05-28T05:57:00;27.83;;;5.87;;
2023;SDS011;1016;48.770;9.154;2023-05-28T05:59:27;29.20;;;6.47;;
2023;SDS011;1016;48.770;9.154;2023-05-28T06:01:53;24.97;;;5.53;;
2023;SDS011;1016;48.770;9.154;2023-05-28T06:04:18;24.73;;;6.10;;
2023;SDS011;1016;48.770;9.154;2023-05-28T06:06:44;28.30;;;6.37;;
2023;SDS011;1016;48.770;9.154;2023-05-28T06:09:10;25.33;;;6.37;;
2023;SDS011;1016;48.770;9.154;2023-05-28T06:11:36;28.57;;;7.47;;
2023;SDS011;1016;48.770;9.154;2023-05-28T06:14:01;28.23;;;6.30;;
2023;SDS011;1016;48.770;9.154;2023-05-28T06:16:27;26.00;;;6.10;;
2023;SDS011;1016;48.770;9.154;2023-05-28T06:18:53;30.23;;;6.50;;
2023;SDS011;1016;48.770;9.154;2023-05-28T06:21:19;27.57;;;5.80;;
2023;SDS011;1016;48.770;9.154;2023-05-28T06:23:44;26.77;;;4.93;;
2023;SDS011;1016;48.770;9.154;2023-05-28T06:26:10;26.27;;;6.60;;
2023;SDS011;1016;48.770;9.154;2023-05-28T06:28:37;26.93;;;5.77;;
2023;SDS011;1016;48.770;9.154;2023-05-28T06:31:02;25.27;;;5.77;;
2023;SDS011;1016;48.770;9.154;2023-05-28T06:33:28;26.50;;;5.50;;
2023;SDS011;1016;48.770;9.154;2023-05-28T06:35:53;24.93;;;6.00;;
2023;SDS011;1016;48.770;9.154;2023-05-28T06:38:19;27.40;;;5.67;;
2023;SDS011;1016;48.770;9.154;2023-05-28T06:40:45;27.33;;;5.73;;
2023;SDS011;1016;48.770;9.154;2023-05-28T06:43:10;28.23;;;6.20;;
2023;SDS011;1016;48.770;9.154;2023-05-28T06:45:35;27.90;;;6.17;;
2023;SDS011;1016;48.770;9.154;2023-05-28T06:48:01;26.30;;;6.10;;
2023;SDS011;1016;48.770;9.154;2023-05-28T06:50:28;24.10;;;5.47;;
2023;SDS011;1016;48.770;9.154;2023-05-28T06:52:53;25.43;;;5.60;;
2023;SDS011;1016;48.770;9.154;2023-05-28T06:55:19;26.87;;;6.20;;
2023;SDS011;1016;48.770;9.154;2023-05-28T06:57:44;26.87;;;6.03;;
2023;SDS011;1016;48.770;9.154;2023-05-28T07:00:10;25.13;;;5.17;;
2023;SDS011;1016;48.770;9.154;2023-05-28T07:02:38;27.47;;;5.73;;
2023;SDS011;1016;48.770;9.154;2023-05-28T07:05:04;26.50;;;5.90;;
2023;SDS011;1016;48.770;9.154;2023-05-28T07:07:30;24.90;;;6.27;;
2023;SDS011;1016;48.770;9.154;2023-05-28T07:09:56;25.53;;;6.00;;
2023;SDS011;1016;48.770;9.154;2023-05-28T07:12:22;28.00;;;6.50;;
2023;SDS011;1016;48.770;9.154;2023-05-28T07:14:47;25.47;;;5.60;;
2023;SDS011;1016;48.770;9.154;2023-05-28T07:17:13;28.10;;;5.90;;
2023;SDS011;1016;48.770;9.154;2023-05-28T07:19:38;24.27;;;5.20;;
2023;SDS011;1016;48.770;9.154;2023-05-28T07:22:04;25.47;;;5.70;;
2023;SDS011;1016;48.770;9.154;2023-05-28T07:24:30;26.77;;;5.97;;
2023;SDS011;1016;48.770;9.154;2023-05-28T07:26:55;25.00;;;5.27;;
2023;SDS011;1016;48.770;9.154;2023-05-28T07:29:21;26.13;;;5.60;;
2023;SDS011;1016;48.770;9.154;2023-05-28T07:31:47;28.40;;;5.53;;
2023;SDS011;1016;48.770;9.154;2023-05-28T07:34:12;26.17;;;5.60;;
2023;SDS011;1016;48.770;9.154;2023-05-28T07:36:38;25.20;;;5.40;;
2023;SDS011;1016;48.770;9.154;2023-05-28T07:39:04;26.80;;;6.20;;
2023;SDS011;1016;48.770;9.154;2023-05-28T07:41:30;26.53;;;5.60;;
2023;SDS011;1016;48.770;9.154;2023-05-28T07:43:55;26.50;;;5.70;;
2023;SDS011;1016;48.770;9.154;2023-05-28T07:46:21;23.73;;;4.90;;
2023;SDS011;1016;48.770;9.154;2023-05-28T07:48:47;24.93;;;5.60;;
2023;SDS011;1016;48.770;9.154;2023-05-28T07:51:14;24.70;;;5.77;;
2023;SDS011;1016;48.770;9.154;2023-05-28T07:53:39;24.90;;;5.43;;
2023;SDS011;1016;48.770;9.154;2023-05-28T07:56:05;25.20;;;6.27;;
2023;SDS011;1016;48.770;9.154;2023-05-28T07:58:30;24.80;;;5.73;;
2023;SDS011;1016;48.770;9.154;2023-05-28T08:00:56;24.90;;;5.30;;
2023;SDS011;1016;48.770;9.154;2023-05-28T08:03:21;28.97;;;5.93;;
2023;SDS011;1016;48.770;9.154;2023-05-28T08:05:49;27.13;;;5.73;;
2023;SDS011;1016;48.770;9.154;2023-05-28T08:08:14;27.87;;;5.70;;
2023;SDS011;1016;48.770;9.154;2023-05-28T08:10:40;25.73;;;4.93;;
2023;SDS011;1016;48.770;9.154;2023-05-28T08:13:05;26.63;;;5.50;;
2023;SDS011;1016;48.770;9.154;2023-05-28T08:15:31;25.37;;;5.07;;
2023;SDS011;1016;48.770;9.154;2023-05-28T08:17:57;24.50;;;4.93;;
2023;SDS011;1016;48.770;9.154;2023-05-28T08:20:22;27.27;;;5.47;;
2023;SDS011;1016;48.770;9.154;2023-05-28T08:22:48;25.70;;;5.33;;
2023;SDS011;1016;48.770;9.154;2023-05-28T08:25:14;30.03;;;5.33;;
2023;SDS011;1016;48.770;9.154;2023-05-28T08:27:40;25.73;;;5.07;;
2023;SDS011;1016;48.770;9.154;2023-05-28T08:30:05;25.20;;;5.70;;
2023;SDS011;1016;48.770;9.154;2023-05-28T08:32:31;25.40;;;4.90;;
2023;SDS011;1016;48.770;9.154;2023-05-28T08:34:57;28.03;;;5.90;;
2023;SDS011;1016;48.770;9.154;2023-05-28T08:37:22;25.07;;;5.17;;
2023;SDS011;1016;48.770;9.154;2023-05-28T08:39:48;27.93;;;5.17;;
2023;SDS011;1016;48.770;9.154;2023-05-28T08:42:13;24.60;;;4.93;;
2023;SDS011;1016;48.770;9.154;2023-05-28T08:44:39;26.83;;;5.53;;
2023;SDS011;1016;48.770;9.154;2023-05-28T08:47:05;26.90;;;5.50;;
2023;SDS011;1016;48.770;9.154;2023-05-28T08:49:32;25.77;;;5.17;;
2023;SDS011;1016;48.770;9.154;2023-05-28T08:52:08;25.03;;;5.03;;
2023;SDS011;1016;48.770;9.154;2023-05-28T08:54:35;23.60;;;4.37;;
2023;SDS011;1016;48.770;9.154;2023-05-28T08:57:02;26.50;;;5.70;;
2023;SDS011;1016;48.770;9.154;2023-05-28T08:59:28;27.37;;;5.67;;
2023;SDS011;1016;48.770;9.154;2023-05-28T09:01:56;24.87;;;5.30;;
2023;SDS011;1016;48.770;9.154;2023-05-28T09:04:21;26.90;;;5.50;;
2023;SDS011;1016;48.770;9.154;2023-05-28T09:06:48;24.50;;;5.10;;
2023;SDS011;1016;48.770;9.154;2023-05-28T09:09:16;24.33;;;5.00;;
2023;SDS011;1016;48.770;9.154;2023-05-28T09:11:42;25.97;;;5.07;;
2023;SDS011;1016;48.770;9.154;2023-05-28T09:14:11;24.17;;;4.90;;
2023;SDS011;1016;48.770;9.154;2023-05-28T09:16:41;26.23;;;4.67;;
2023;SDS011;1016;48.770;9.154;2023-05-28T09:19:07;25.63;;;5.20;;
2023;SDS011;1016;48.770;9.154;2023-05-28T09:21:33;25.03;;;4.90;;
2023;SDS011;1016;48.770;9.154;2023-05-28T09:24:01;25.07;;;5.30;;
2023;SDS011;1016;48.770;9.154;2023-05-28T09:26:30;25.57;;;5.30;;
2023;SDS011;1016;48.770;9.154;2023-05-28T09:28:56;23.83;;;4.90;;
2023;SDS011;1016;48.770;9.154;2023-05-28T09:31:28;26.47;;;5.40;;
2023;SDS011;1016;48.770;9.154;2023-05-28T09:33:58;26.93;;;5.17;;
2023;SDS011;1016;48.770;9.154;2023-05-28T09:36:25;25.37;;;5.10;;
2023;SDS011;1016;48.770;9.154;2023-05-28T09:38:51;23.67;;;4.63;;
2023;SDS011;1016;48.770;9.154;2023-05-28T09:41:20;25.83;;;4.67;;
2023;SDS011;1016;48.770;9.154;2023-05-28T09:43:57;24.40;;;4.73;;
2023;SDS011;1016;48.770;9.154;2023-05-28T09:46:28;26.10;;;5.10;;
2023;SDS011;1016;48.770;9.154;2023-05-28T09:48:58;26.50;;;5.10;;
2023;SDS011;1016;48.770;9.154;2023-05-28T09:51:25;24.73;;;4.90;;
2023;SDS011;1016;48.770;9.154;2023-05-28T09:54:04;26.07;;;5.33;;
2023;SDS011;1016;48.770;9.154;2023-05-28T09:56:31;25.73;;;5.17;;
2023;SDS011;1016;48.770;9.154;2023-05-28T09:59:01;26.37;;;4.97;;
2023;SDS011;1016;48.770;9.154;2023-05-28T10:01:32;25.13;;;4.53;;
2023;SDS011;1016;48.770;9.154;2023-05-28T10:04:09;25.23;;;4.17;;
2023;SDS011;1016;48.770;9.154;2023-05-28T10:06:39;26.53;;;5.07;;
2023;SDS011;1016;48.770;9.154;2023-05-28T10:09:08;24.77;;;4.53;;
2023;SDS011;1016;48.770;9.154;2023-05-28T10:11:39;26.50;;;4.83;;
2023;SDS011;1016;48.770;9.154;2023-05-28T10:14:08;22.87;;;4.50;;
2023;SDS011;1016;48.770;9.154;2023-05-28T10:16:35;24.30;;;4.47;;
2023;SDS011;1016;48.770;9.154;2023-05-28T10:19:01;25.87;;;4.63;;
2023;SDS011;1016;48.770;9.154;2023-05-28T10:21:27;26.73;;;4.70;;
2023;SDS011;1016;48.770;9.154;2023-05-28T10:23:53;24.80;;;4.93;;
2023;SDS011;1016;48.770;9.154;2023-05-28T10:26:19;27.47;;;4.40;;
2023;SDS011;1016;48.770;9.154;2023-05-28T10:28:47;25.07;;;4.33;;
2023;SDS011;1016;48.770;9.154;2023-05-28T10:31:20;24.10;;;4.47;;
2023;SDS011;1016;48.770;9.154;2023-05-28T10:33:47;23.80;;;4.30;;
2023;SDS011;1016;48.770;9.154;2023-05-28T10:36:13;23.90;;;4.10;;
2023;SDS011;1016;48.770;9.154;2023-05-28T10:41:19;23.80;;;4.13;;
2023;SDS011;1016;48.770;9.154;2023-05-28T10:43:48;23.70;;;4.67;;
2023;SDS011;1016;48.770;9.154;2023-05-28T10:46:18;23.50;;;4.00;;
2023;SDS011;1016;48.770;9.154;2023-05-28T10:51:56;24.70;;;4.43;;
2023;SDS011;1016;48.770;9.154;2023-05-28T10:54:39;24.00;;;3.90;;
2023;SDS011;1016;48.770;9.154;2023-05-28T10:59:42;28.03;;;4.37;;
2023;SDS011;1016;48.770;9.154;2023-05-28T11:04:45;25.53;;;5.60;;
2023;SDS011;1016;48.770;9.154;2023-05-28T11:07:15;23.40;;;4.50;;
2023;SDS011;1016;48.770;9.154;2023-05-28T11:09:46;27.07;;;4.70;;
2023;SDS011;1016;48.770;9.154;2023-05-28T11:12:15;24.30;;;4.40;;
2023;SDS011;1016;48.770;9.154;2023-05-28T11:14:41;24.97;;;4.50;;
2023;SDS011;1016;48.770;9.154;2023-05-28T11:17:16;25.13;;;4.60;;
2023;SDS011;1016;48.770;9.154;2023-05-28T11:19:45;24.07;;;4.50;;
2023;SDS011;1016;48.770;9.154;2023-05-28T11:22:15;24.60;;;4.90;;
2023;SDS011;1016;48.770;9.154;2023-05-28T11:24:49;25.27;;;4.47;;
2023;SDS011;1016;48.770;9.154;2023-05-28T11:27:24;23.83;;;4.03;;
2023;SDS011;1016;48.770;9.154;2023-05-28T11:29:52;23.87;;;4.60;;
2023;SDS011;1016;48.770;9.154;2023-05-28T11:32:19;23.77;;;4.00;;
2023;SDS011;1016;48.770;9.154;2023-05-28T11:34:47;24.57;;;4.43;;
2023;SDS011;1016;48.770;9.154;2023-05-28T11:37:13;27.20;;;5.00;;
2023;SDS011;1016;48.770;9.154;2023-05-28T11:39:47;23.53;;;4.50;;
2023;SDS011;1016;48.770;9.154;2023-05-28T11:42:13;28.77;;;5.03;;
2023;SDS011;1016;48.770;9.154;2023-05-28T11:44:42;23.97;;;5.13;;
2023;SDS011;1016;48.770;9.154;2023-05-28T11:47:12;24.80;;;5.13;;
2023;SDS011;1016;48.770;9.154;2023-05-28T11:49:38;24.07;;;4.40;;
2023;SDS011;1016;48.770;9.154;2023-05-28T11:52:04;24.97;;;4.63;;
2023;SDS011;1016;48.770;9.154;2023-05-28T11:54:29;24.50;;;4.73;;
2023;SDS011;1016;48.770;9.154;2023-05-28T11:56:55;25.30;;;4.67;;
2023;SDS011;1016;48.770;9.154;2023-05-28T11:59:21;25.17;;;5.00;;
2023;SDS011;1016;48.770;9.154;2023-05-28T12:01:51;24.30;;;4.47;;
2023;SDS011;1016;48.770;9.154;2023-05-28T12:04:21;26.27;;;4.93;;
2023;SDS011;1016;48.770;9.154;2023-05-28T12:06:49;25.60;;;5.10;;
2023;SDS011;1016;48.770;9.154;2023-05-28T12:09:16;25.53;;;4.60;;
2023;SDS011;1016;48.770;9.154;2023-05-28T12:11:42;23.17;;;4.80;;
2023;SDS011;1016;48.770;9.154;2023-05-28T12:14:08;23.40;;;4.53;;
2023;SDS011;1016;48.770;9.154;2023-05-28T12:16:45;24.97;;;4.70;;
2023;SDS011;1016;48.770;9.154;2023-05-28T12:19:14;29.73;;;5.17;;
2023;SDS011;1016;48.770;9.154;2023-05-28T12:21:40;24.30;;;4.90;;
2023;SDS011;1016;48.770;9.154;2023-05-28T12:24:13;24.50;;;4.87;;
2023;SDS011;1016;48.770;9.154;2023-05-28T12:26:41;24.13;;;5.00;;
2023;SDS011;1016;48.770;9.154;2023-05-28T12:29:07;23.23;;;4.50;;
2023;SDS011;1016;48.770;9.154;2023-05-28T12:31:33;22.73;;;4.23;;
2023;SDS011;1016;48.770;9.154;2023-05-28T12:33:58;24.50;;;4.40;;
2023;SDS011;1016;48.770;9.154;2023-05-28T12:36:24;24.80;;;4.50;;
2023;SDS011;1016;48.770;9.154;2023-05-28T12:38:49;22.60;;;4.27;;
2023;SDS011;1016;48.770;9.154;2023-05-28T12:41:15;23.20;;;4.10;;
2023;SDS011;1016;48.770;9.154;2023-05-28T12:43:41;22.73;;;4.37;;
2023;SDS011;1016;48.770;9.154;2023-05-28T12:46:07;22.97;;;4.20;;
2023;SDS011;1016;48.770;9.154;2023-05-28T12:48:33;24.80;;;4.90;;
2023;SDS011;1016;48.770;9.154;2023-05-28T12:50:58;24.30;;;4.63;;
2023;SDS011;1016;48.770;9.154;2023-05-28T12:53:24;24.03;;;4.60;;
2023;SDS011;1016;48.770;9.154;2023-05-28T12:55:50;24.53;;;4.87;;
2023;SDS011;1016;48.770;9.154;2023-05-28T12:58:16;26.83;;;5.03;;
2023;SDS011;1016;48.770;9.154;2023-05-28T13:00:41;23.53;;;4.30;;
2023;SDS011;1016;48.770;9.154;2023-05-28T13:03:07;22.37;;;4.40;;
2023;SDS011;1016;48.770;9.154;2023-05-28T13:05:32;23.63;;;4.50;;
2023;SDS011;1016;48.770;9.154;2023-05-28T13:07:59;24.87;;;4.47;;
2023;SDS011;1016;48.770;9.154;2023-05-28T13:10:27;25.37;;;5.20;;
2023;SDS011;1016;48.770;9.154;2023-05-28T13:12:52;22.60;;;4.40;;
2023;SDS011;1016;48.770;9.154;2023-05-28T13:15:18;27.33;;;4.63;;
2023;SDS011;1016;48.770;9.154;2023-05-28T13:17:44;24.07;;;4.50;;
2023;SDS011;1016;48.770;9.154;2023-05-28T13:20:09;26.40;;;5.30;;
2023;SDS011;1016;48.770;9.154;2023-05-28T13:22:38;24.00;;;5.47;;
2023;SDS011;1016;48.770;9.154;2023-05-28T13:25:05;23.40;;;4.67;;
2023;SDS011;1016;48.770;9.154;2023-05-28T13:27:32;22.67;;;4.90;;
2023;SDS011;1016;48.770;9.154;2023-05-28T13:29:58;22.50;;;4.10;;
2023;SDS011;1016;48.770;9.154;2023-05-28T13:32:24;23.73;;;4.67;;
2023;SDS011;1016;48.770;9.154;2023-05-28T13:34:50;23.10;;;4.63;;
2023;SDS011;1016;48.770;9.154;2023-05-28T13:37:15;22.90;;;4.97;;
2023;SDS011;1016;48.770;9.154;2023-05-28T13:39:41;23.53;;;4.50;;
2023;SDS011;1016;48.770;9.154;2023-05-28T13:42:07;25.30;;;4.50;;
2023;SDS011;1016;48.770;9.154;2023-05-28T13:44:33;24.10;;;4.97;;
2023;SDS011;1016;48.770;9.154;2023-05-28T13:46:59;23.63;;;4.43;;
2023;SDS011;1016;48.770;9.154;2023-05-28T13:49:25;25.30;;;4.47;;
2023;SDS011;1016;48.770;9.154;2023-05-28T13:51:51;23.13;;;4.27;;
2023;SDS011;1016;48.770;9.154;2023-05-28T13:54:16;23.33;;;4.60;;
2023;SDS011;1016;48.770;9.154;2023-05-28T13:56:42;21.40;;;4.40;;
2023;SDS011;1016;48.770;9.154;2023-05-28T13:59:08;23.33;;;4.77;;
2023;SDS011;1016;48.770;9.154;2023-05-28T14:01:34;21.60;;;4.50;;
2023;SDS011;1016;48.770;9.154;2023-05-28T14:03:59;20.80;;;3.90;;
2023;SDS011;1016;48.770;9.154;2023-05-28T14:06:25;21.93;;;4.43;;
2023;SDS011;1016;48.770;9.154;2023-05-28T14:08:50;20.70;;;4.60;;
2023;SDS011;1016;48.770;9.154;2023-05-28T14:11:16;20.90;;;4.23;;
2023;SDS011;1016;48.770;9.154;2023-05-28T14:13:42;20.90;;;4.83;;
2023;SDS011;1016;48.770;9.154;2023-05-28T14:16:08;21.17;;;4.20;;
2023;SDS011;1016;48.770;9.154;2023-05-28T14:18:34;22.30;;;4.50;;
2023;SDS011;1016;48.770;9.154;2023-05-28T14:20:59;20.70;;;4.20;;
2023;SDS011;1016;48.770;9.154;2023-05-28T14:23:25;22.93;;;5.03;;
2023;SDS011;1016;48.770;9.154;2023-05-28T14:25:51;22.40;;;4.67;;
2023;SDS011;1016;48.770;9.154;2023-05-28T14:28:16;21.30;;;4.60;;
2023;SDS011;1016;48.770;9.154;2023-05-28T14:30:42;22.27;;;4.70;;
2023;SDS011;1016;48.770;9.154;2023-05-28T14:33:09;22.90;;;4.80;;
2023;SDS011;1016;48.770;9.154;2023-05-28T14:35:35;22.23;;;4.40;;
2023;SDS011;1016;48.770;9.154;2023-05-28T14:38:01;22.80;;;4.40;;
2023;SDS011;1016;48.770;9.154;2023-05-28T14:40:26;26.23;;;4.77;;
2023;SDS011;1016;48.770;9.154;2023-05-28T14:42:52;24.63;;;5.07;;
2023;SDS011;1016;48.770;9.154;2023-05-28T14:45:18;21.27;;;4.30;;
2023;SDS011;1016;48.770;9.154;2023-05-28T14:47:43;23.97;;;5.10;;
2023;SDS011;1016;48.770;9.154;2023-05-28T14:50:09;23.57;;;4.70;;
2023;SDS011;1016;48.770;9.154;2023-05-28T14:52:34;23.53;;;4.83;;
2023;SDS011;1016;48.770;9.154;2023-05-28T14:55:00;24.07;;;4.77;;
2023;SDS011;1016;48.770;9.154;2023-05-28T14:57:27;21.90;;;4.37;;
2023;SDS011;1016;48.770;9.154;2023-05-28T14:59:53;25.43;;;4.63;;
2023;SDS011;1016;48.770;9.154;2023-05-28T15:02:23;22.73;;;4.87;;
2023;SDS011;1016;48.770;9.154;2023-05-28T15:04:48;23.10;;;4.40;;
2023;SDS011;1016;48.770;9.154;2023-05-28T15:07:14;25.30;;;5.10;;
2023;SDS011;1016;48.770;9.154;2023-05-28T15:09:40;22.43;;;4.80;;
2023;SDS011;1016;48.770;9.154;2023-05-28T15:12:05;26.00;;;5.10;;
2023;SDS011;1016;48.770;9.154;2023-05-28T15:14:34;22.83;;;5.07;;
2023;SDS011;1016;48.770;9.154;2023-05-28T15:17:00;23.23;;;4.67;;
2023;SDS011;1016;48.770;9.154;2023-05-28T15:19:27;22.30;;;4.77;;
2023;SDS011;1016;48.770;9.154;2023-05-28T15:21:53;23.07;;;4.63;;
2023;SDS011;1016;48.770;9.154;2023-05-28T15:24:18;25.33;;;5.17;;
2023;SDS011;1016;48.770;9.154;2023-05-28T15:26:44;23.40;;;4.77;;
2023;SDS011;1016;48.770;9.154;2023-05-28T15:29:13;23.77;;;5.00;;
2023;SDS011;1016;48.770;9.154;2023-05-28T15:31:40;23.00;;;4.93;;
2023;SDS011;1016;48.770;9.154;2023-05-28T15:34:06;23.57;;;4.70;;
2023;SDS011;1016;48.770;9.154;2023-05-28T15:36:33;22.97;;;5.07;;
2023;SDS011;1016;48.770;9.154;2023-05-28T15:38:58;23.33;;;4.80;;
2023;SDS011;1016;48.770;9.154;2023-05-28T15:41:24;26.77;;;5.30;;
2023;SDS011;1016;48.770;9.154;2023-05-28T15:43:51;23.70;;;5.10;;
2023;SDS011;1016;48.770;9.154;2023-05-28T15:46:18;23.37;;;4.60;;
2023;SDS011;1016;48.770;9.154;2023-05-28T15:48:44;22.30;;;4.57;;
2023;SDS011;1016;48.770;9.154;2023-05-28T15:51:10;25.17;;;5.20;;
2023;SDS011;1016;48.770;9.154;2023-05-28T15:53:36;23.90;;;5.23;;
2023;SDS011;1016;48.770;9.154;2023-05-28T15:56:02;27.40;;;4.90;;
2023;SDS011;1016;48.770;9.154;2023-05-28T15:58:27;24.10;;;4.90;;
2023;SDS011;1016;48.770;9.154;2023-05-28T16:00:53;23.60;;;5.00;;
2023;SDS011;1016;48.770;9.154;2023-05-28T16:03:19;23.80;;;5.80;;
2023;SDS011;1016;48.770;9.154;2023-05-28T16:05:45;22.97;;;5.20;;
2023;SDS011;1016;48.770;9.154;2023-05-28T16:08:11;25.40;;;5.53;;
2023;SDS011;1016;48.770;9.154;2023-05-28T16:10:37;22.27;;;5.03;;
2023;SDS011;1016;48.770;9.154;2023-05-28T16:13:04;23.77;;;5.00;;
2023;SDS011;1016;48.770;9.154;2023-05-28T16:15:32;22.80;;;5.63;;
2023;SDS011;1016;48.770;9.154;2023-05-28T16:18:00;23.20;;;5.10;;
2023;SDS011;1016;48.770;9.154;2023-05-28T16:20:28;23.50;;;5.90;;
2023;SDS011;1016;48.770;9.154;2023-05-28T16:22:55;22.60;;;5.57;;
2023;SDS011;1016;48.770;9.154;2023-05-28T16:25:21;22.63;;;5.90;;
2023;SDS011;1016;48.770;9.154;2023-05-28T16:27:47;23.90;;;5.50;;
2023;SDS011;1016;48.770;9.154;2023-05-28T16:30:14;25.87;;;6.00;;
2023;SDS011;1016;48.770;9.154;2023-05-28T16:32:40;24.00;;;5.70;;
2023;SDS011;1016;48.770;9.154;2023-05-28T16:35:06;26.40;;;5.90;;
2023;SDS011;1016;48.770;9.154;2023-05-28T16:37:33;23.33;;;5.03;;
2023;SDS011;1016;48.770;9.154;2023-05-28T16:39:58;23.57;;;5.90;;
2023;SDS011;1016;48.770;9.154;2023-05-28T16:42:24;24.30;;;6.00;;
2023;SDS011;1016;48.770;9.154;2023-05-28T16:44:50;26.20;;;5.70;;
2023;SDS011;1016;48.770;9.154;2023-05-28T16:47:16;23.27;;;5.57;;
2023;SDS011;1016;48.770;9.154;2023-05-28T16:49:41;24.03;;;5.13;;
2023;SDS011;1016;48.770;9.154;2023-05-28T16:52:07;24.40;;;5.80;;
2023;SDS011;1016;48.770;9.154;2023-05-28T16:54:33;28.70;;;10.23;;
2023;SDS011;1016;48.770;9.154;2023-05-28T16:56:59;25.10;;;5.90;;
2023;SDS011;1016;48.770;9.154;2023-05-28T16:59:26;23.50;;;5.70;;
2023;SDS011;1016;48.770;9.154;2023-05-28T17:01:53;23.07;;;5.70;;
2023;SDS011;1016;48.770;9.154;2023-05-28T17:04:19;23.17;;;5.33;;
2023;SDS011;1016;48.770;9.154;2023-05-28T17:06:51;23.60;;;5.50;;
2023;SDS011;1016;48.770;9.154;2023-05-28T17:09:20;24.00;;;5.50;;
2023;SDS011;1016;48.770;9.154;2023-05-28T17:11:45;25.33;;;5.97;;
2023;SDS011;1016;48.770;9.154;2023-05-28T17:14:12;23.40;;;5.77;;
2023;SDS011;1016;48.770;9.154;2023-05-28T17:16:37;23.10;;;5.63;;